aviador You're here:

PABT Decoded Metar

BETTLES in AK, USA
Report Time2017-10-20 14:53:00
UTC Time2017-10-20 15:59:59
Flight Rules Old
Wind350° at 08 kt
W.Decomp.*RWY 01: 6.1 kt HW 5.1 kt LCW
W.Rank350° ranks 6
Current wind is above 350° avg. (4.4)
Visibility9999 m
Phenomena:N/A
Clouds:Few 040 Hf
Expected CloudBase > 1,600 ft AGL from Temp-Dew spread
CeilingNone
Temp-19°C (ISA -33)
Dew Point-23°C (71% RH)
AAT-25.6°C
QNH995 hPa
Density Alt-2,890 ft
Elevation640 ft
Report Wrong Elevation
Raw Report
PABT 201453Z 35008KT 10SM FEW040 M19/M23 A2938 RMK AO2 SLP971
T11891228 58004=

Extra information for PABT:More info

Metar Taf Metar & Taf Last 4 Metars F.Rules Stats Wind Profile Meteogram Temp Stats Airport Information Weather charts Add Link Nearby VenuesMetar ALERT Operation Metar Decoded Social comments

AIRNAV info for PABT